Artesia ASC

2021-07-24 21:50:00

  • imperial
Date Time Air Temperature Relative Humidity Dewpoint Windchill Heat Index Wind Speed Wind Dir. Rain Solar Radiation Soil Temperature
2m 2m 3m 3m 10cm
US/Mountain F % F F F MPH deg in MJ/m^2 F
max avg avg
2021-07-23 22:00:00 76.0 54.8 58.6 76.0 76.0 8.3 9.9 7.3 214.2 200.4 0.00 0.0000000 78.2
2021-07-23 22:05:00 76.0 56.0 59.2 76.0 76.0 9.2 10.5 7.4 208.3 196.3 0.00 0.0000000 78.2
2021-07-23 22:10:00 76.1 56.5 59.5 76.1 76.1 6.0 11.2 7.6 195.9 210.3 0.00 0.0000000 78.2
2021-07-23 22:15:00 76.1 56.2 59.4 76.1 76.1 8.7 8.7 6.7 207.2 208.4 0.00 0.0000000 78.2
2021-07-23 22:20:00 76.3 55.7 59.3 76.3 76.3 8.1 10.1 7.6 204.1 207.7 0.00 0.0000000 78.1
2021-07-23 22:25:00 76.7 55.4 59.5 76.7 76.7 6.9 9.7 7.5 199.2 205.4 0.00 0.0000000 78.1
2021-07-23 22:30:00 76.7 54.6 59.1 76.7 76.7 7.2 11.0 8.7 201.6 201.5 0.00 0.0000000 78.1
2021-07-23 22:35:00 76.9 53.1 58.5 76.9 76.9 8.7 12.2 9.2 205.1 196.4 0.00 0.0000000 78.0
2021-07-23 22:40:00 77.2 52.9 58.6 77.2 77.2 10.5 12.1 9.3 207.4 196.8 0.00 0.0000000 78.0
2021-07-23 22:45:00 77.4 53.0 58.9 77.4 77.4 9.0 11.7 9.1 196.2 199.9 0.00 0.0000000 78.0
2021-07-23 22:50:00 77.8 51.7 58.6 77.8 77.8 11.7 13.0 10.1 205.8 201.4 0.00 0.0000000 78.0
2021-07-23 22:55:00 77.6 51.4 58.3 77.6 77.6 7.8 11.7 9.2 198.7 204.3 0.00 0.0000000 77.9
2021-07-23 23:00:00 77.8 50.6 58.0 77.8 77.8 9.2 11.3 8.9 208.3 211.5 0.00 0.0000000 77.9
2021-07-23 23:05:00 78.1 51.0 58.5 78.1 78.1 5.8 10.3 8.4 195.0 199.2 0.00 0.0000000 77.9
2021-07-23 23:10:00 78.0 52.0 59.0 78.0 78.0 7.4 10.3 7.8 211.7 203.0 0.00 0.0000000 77.9
2021-07-23 23:15:00 78.0 52.7 59.3 78.0 78.0 9.4 10.5 8.3 186.8 197.0 0.00 0.0000000 77.8
2021-07-23 23:20:00 77.5 53.9 59.5 77.5 77.5 7.6 9.4 7.6 177.0 190.6 0.00 0.0000000 77.8
2021-07-23 23:25:00 77.5 54.5 59.8 77.5 77.5 6.2 8.8 7.1 214.9 196.9 0.00 0.0000000 77.8
2021-07-23 23:30:00 77.1 55.5 60.0 77.1 77.1 4.6 8.3 6.4 190.8 187.5 0.00 0.0000000 77.8
2021-07-23 23:35:00 77.0 56.3 60.2 77.0 77.0 7.8 9.0 6.3 180.1 182.2 0.00 0.0000000 77.8
2021-07-23 23:40:00 76.7 57.2 60.4 76.7 76.7 5.8 7.8 6.4 189.7 181.3 0.00 0.0000000 77.7
2021-07-23 23:45:00 76.5 56.5 59.9 76.5 76.5 6.7 9.2 6.8 194.4 184.2 0.00 0.0000000 77.7
2021-07-23 23:50:00 76.9 56.5 60.2 76.9 76.9 6.2 11.0 7.7 177.9 183.6 0.00 0.0000000 77.7
2021-07-23 23:55:00 76.9 56.4 60.2 76.9 76.9 6.9 10.5 8.3 179.1 177.7 0.00 0.0000000 77.7
2021-07-24 00:00:00 76.5 59.7 61.4 76.5 76.5 6.9 9.9 7.9 173.9 180.9 0.00 0.0000000 77.7
2021-07-24 00:05:00 75.7 59.3 60.5 75.7 75.7 10.1 10.1 8.6 166.7 170.2 0.00 0.0000000 77.6
2021-07-24 00:10:00 76.3 57.7 60.3 76.3 76.3 8.8 11.0 8.9 168.2 173.3 0.00 0.0000000 77.6
2021-07-24 00:15:00 77.1 54.4 59.4 77.1 77.1 9.6 13.1 10.0 184.2 176.6 0.00 0.0000000 77.6
2021-07-24 00:20:00 77.6 52.9 59.1 77.6 77.6 10.6 12.4 9.5 175.4 173.9 0.00 0.0000000 77.6
2021-07-24 00:25:00 77.3 53.3 59.1 77.3 77.3 9.0 11.9 9.5 184.9 178.9 0.00 0.0000000 77.6
2021-07-24 00:30:00 78.1 51.7 58.9 78.1 78.1 9.0 16.4 11.0 176.5 181.1 0.00 0.0000000 77.6
2021-07-24 00:35:00 77.4 53.8 59.4 77.4 77.4 10.1 10.5 8.3 169.5 179.4 0.00 0.0000000 77.5
2021-07-24 00:40:00 77.0 54.9 59.5 77.0 77.0 8.5 10.3 8.4 182.9 182.8 0.00 0.0000000 77.5
2021-07-24 00:45:00 76.6 55.1 59.3 76.6 76.6 7.6 9.9 8.1 194.2 185.4 0.00 0.0000000 77.5
2021-07-24 00:50:00 76.5 56.4 59.8 76.5 76.5 6.3 8.0 6.8 187.9 187.5 0.00 0.0000000 77.5
2021-07-24 00:55:00 75.5 57.5 59.5 75.5 75.5 5.6 7.1 6.0 190.3 182.2 0.00 0.0000000 77.5
2021-07-24 01:00:00 75.1 58.9 59.7 75.1 75.1 6.2 6.9 5.3 172.0 178.4 0.00 0.0000000 77.5
2021-07-24 01:05:00 74.8 59.2 59.6 74.8 74.8 3.8 5.3 4.2 147.6 164.4 0.00 0.0000000 77.5
2021-07-24 01:10:00 74.3 59.8 59.4 74.3 74.3 1.7 3.8 2.5 116.7 140.7 0.00 0.0000000 77.4
2021-07-24 01:15:00 73.9 61.0 59.6 73.9 73.9 3.7 3.7 2.4 127.8 124.4 0.00 0.0000000 77.5
2021-07-24 01:20:00 72.8 64.7 60.2 72.8 72.8 3.8 4.2 3.7 129.1 120.9 0.00 0.0000000 77.4
2021-07-24 01:25:00 72.4 67.0 60.8 72.4 72.4 2.2 3.7 2.5 107.6 123.6 0.00 0.0000000 77.4
2021-07-24 01:30:00 72.8 67.1 61.2 72.8 72.8 1.3 3.1 2.2 66.6 93.6 0.00 0.0000000 77.4
2021-07-24 01:35:00 73.0 67.4 61.6 73.0 73.0 2.1 3.3 2.5 74.0 62.2 0.00 0.0000000 77.4
2021-07-24 01:40:00 72.6 70.2 62.3 72.6 72.6 3.7 4.7 3.6 79.7 90.7 0.00 0.0000000 77.4
2021-07-24 01:45:00 71.7 72.3 62.3 71.7 71.7 3.1 3.3 2.2 233.0 161.5 0.00 0.0000000 77.3
2021-07-24 01:50:00 70.6 75.9 62.6 70.6 70.6 2.6 3.5 3.0 189.7 193.6 0.00 0.0000000 77.3
2021-07-24 01:55:00 70.7 75.9 62.8 70.7 70.7 2.8 2.8 2.5 257.2 227.5 0.00 0.0000000 77.3
2021-07-24 02:00:00 70.0 77.5 62.6 70.0 70.0 3.1 3.5 3.1 279.7 277.8 0.00 0.0000000 77.3
2021-07-24 02:05:00 70.3 76.2 62.5 70.3 70.3 1.7 4.0 3.1 245.6 265.2 0.00 0.0000000 77.3
2021-07-24 02:10:00 69.7 77.3 62.3 69.7 69.7 2.6 2.6 2.0 291.1 260.0 0.00 0.0000000 77.3
2021-07-24 02:15:00 69.6 78.2 62.5 69.6 69.6 1.3 2.8 2.2 302.1 298.5 0.00 0.0000000 77.3
2021-07-24 02:20:00 69.9 78.3 62.8 69.9 69.9 2.6 2.8 2.0 318.1 296.2 0.00 0.0000000 77.2
2021-07-24 02:25:00 69.8 78.4 62.8 69.8 69.8 4.0 4.0 3.3 322.3 319.8 0.00 0.0000000 77.2
2021-07-24 02:30:00 70.2 77.3 62.8 70.2 70.2 3.1 4.2 3.7 325.1 327.0 0.00 0.0000000 77.2
2021-07-24 02:35:00 70.8 75.3 62.5 70.8 70.8 1.7 3.1 2.4 273.1 299.5 0.00 0.0000000 77.2
2021-07-24 02:40:00 70.7 75.7 62.6 70.7 70.7 3.3 3.3 2.0 236.3 249.9 0.00 0.0000000 77.2
2021-07-24 02:45:00 71.0 75.4 62.8 71.0 71.0 3.8 4.9 4.2 221.5 228.9 0.00 0.0000000 77.1
2021-07-24 02:50:00 71.1 75.7 63.0 71.1 71.1 4.0 4.9 4.3 256.6 235.8 0.00 0.0000000 77.1
2021-07-24 02:55:00 70.2 78.2 63.1 70.2 70.2 3.0 4.2 3.6 270.3 277.5 0.00 0.0000000 77.1
2021-07-24 03:00:00 70.0 77.8 62.7 70.0 70.0 4.6 4.7 3.8 190.7 202.2 0.00 0.0000000 77.1
2021-07-24 03:05:00 69.4 80.5 63.2 69.4 69.4 3.8 5.8 4.9 201.3 186.6 0.00 0.0000000 77.1
2021-07-24 03:10:00 70.3 75.6 62.3 70.3 70.3 4.0 4.7 4.2 202.3 200.1 0.00 0.0000000 77.1
2021-07-24 03:15:00 70.6 74.1 62.0 70.6 70.6 4.6 4.6 3.7 196.5 197.0 0.00 0.0000000 77.0
2021-07-24 03:20:00 70.5 74.3 61.9 70.5 70.5 5.3 5.5 5.0 207.6 201.7 0.00 0.0000000 77.0
2021-07-24 03:25:00 70.8 73.2 61.8 70.8 70.8 4.7 5.3 4.6 180.0 212.9 0.00 0.0000000 77.0
2021-07-24 03:30:00 70.5 74.7 62.1 70.5 70.5 4.4 5.3 4.4 186.8 192.5 0.00 0.0000000 77.0
2021-07-24 03:35:00 69.5 77.0 62.0 69.5 69.5 3.7 4.9 3.9 218.0 203.4 0.00 0.0000000 77.0
2021-07-24 03:40:00 70.3 73.6 61.5 70.3 70.3 4.4 4.4 3.9 200.4 199.4 0.00 0.0000000 76.9
2021-07-24 03:45:00 70.6 71.8 61.1 70.6 70.6 4.4 5.1 4.5 223.7 216.5 0.00 0.0000000 76.9
2021-07-24 03:50:00 70.8 70.3 60.7 70.8 70.8 3.7 4.7 4.1 229.6 228.4 0.00 0.0000000 76.9
2021-07-24 03:55:00 70.8 72.6 61.5 70.8 70.8 3.5 4.7 3.9 243.7 235.5 0.00 0.0000000 76.9
2021-07-24 04:00:00 69.7 76.1 61.8 69.7 69.7 3.3 3.7 3.1 204.3 227.2 0.00 0.0000000 76.9
2021-07-24 04:05:00 69.7 76.0 61.7 69.7 69.7 4.4 4.6 3.9 207.0 197.3 0.00 0.0000000 76.9
2021-07-24 04:10:00 68.9 77.7 61.7 68.9 68.9 3.1 4.6 4.0 214.1 204.5 0.00 0.0000000 76.9
2021-07-24 04:15:00 69.0 77.2 61.6 69.0 69.0 3.5 3.7 3.2 218.5 223.1 0.00 0.0000000 76.8
2021-07-24 04:20:00 69.9 75.9 62.0 69.9 69.9 4.2 4.4 3.8 211.3 200.9 0.00 0.0000000 76.8
2021-07-24 04:25:00 69.2 77.4 61.9 69.2 69.2 3.3 4.2 3.1 137.0 174.4 0.00 0.0000000 76.8
2021-07-24 04:30:00 68.0 81.5 62.1 68.0 68.0 2.1 3.3 2.3 173.9 146.1 0.00 0.0000000 76.8
2021-07-24 04:35:00 67.9 82.8 62.5 67.9 67.9 3.3 3.7 2.8 190.2 173.5 0.00 0.0000000 76.8
2021-07-24 04:40:00 68.4 82.8 62.9 68.4 68.4 1.7 3.8 2.9 247.4 219.0 0.00 0.0000000 76.7
2021-07-24 04:45:00 68.2 82.4 62.6 68.2 68.2 2.8 2.8 1.0 330.2 259.2 0.00 0.0000000 76.7
2021-07-24 04:50:00 67.7 84.2 62.7 67.7 67.7 2.1 3.7 2.6 25.3 358.3 0.00 0.0000000 76.7
2021-07-24 04:55:00 67.8 83.6 62.6 67.8 67.8 3.3 4.4 3.2 19.7 32.3 0.00 0.0000000 76.7
2021-07-24 05:00:00 68.1 82.8 62.7 68.1 68.1 2.2 3.0 2.4 349.7 8.5 0.00 0.0000000 76.7
2021-07-24 05:05:00 68.0 81.8 62.2 68.0 68.0 2.8 2.8 1.9 254.3 308.2 0.00 0.0000000 76.7
2021-07-24 05:10:00 66.2 85.6 61.8 66.2 66.2 4.0 4.0 3.6 271.6 255.1 0.00 0.0000000 76.7
2021-07-24 05:15:00 65.8 88.3 62.3 65.8 65.8 3.1 4.0 3.6 305.9 289.3 0.00 0.0000000 76.6
2021-07-24 05:20:00 66.7 88.8 63.3 66.7 66.7 1.0 3.3 1.9 282.0 304.8 0.00 0.0000000 76.6
2021-07-24 05:25:00 67.0 87.4 63.1 67.0 67.0 0.0 1.3 0.3 256.3 263.9 0.00 0.0000000 76.6
2021-07-24 05:30:00 67.2 86.8 63.1 67.2 67.2 2.1 2.1 0.6 325.5 326.0 0.00 0.0000000 76.6
2021-07-24 05:35:00 67.2 85.8 62.8 67.2 67.2 0.0 2.2 0.8 299.1 335.2 0.00 0.0000000 76.5
2021-07-24 05:40:00 67.0 86.0 62.7 67.0 67.0 1.5 1.5 0.6 291.6 292.5 0.00 0.0000000 76.5
2021-07-24 05:45:00 66.7 86.4 62.5 66.7 66.7 2.2 2.2 1.5 306.9 299.5 0.00 0.0000000 76.5
2021-07-24 05:50:00 66.5 87.3 62.6 66.5 66.5 3.7 3.7 2.5 337.1 323.3 0.00 0.0000000 76.5
2021-07-24 05:55:00 66.7 86.8 62.7 66.7 66.7 3.1 5.6 4.1 18.2 346.9 0.00 0.0010000 76.5
2021-07-24 06:00:00 66.8 86.7 62.7 66.8 66.8 3.8 5.3 3.4 350.6 356.1 0.00 0.0030000 76.4
2021-07-24 06:05:00 66.9 87.2 63.0 66.9 66.9 3.3 4.9 4.0 326.6 342.5 0.00 0.0050000 76.4
2021-07-24 06:10:00 66.6 87.7 62.8 66.6 66.6 2.2 3.3 2.7 344.5 337.8 0.00 0.0090000 76.4
2021-07-24 06:15:00 66.5 87.2 62.6 66.5 66.5 0.8 2.1 0.9 225.4 308.4 0.00 0.0120000 76.4
2021-07-24 06:20:00 66.1 87.5 62.3 66.1 66.1 3.0 3.8 2.0 174.2 345.6 0.00 0.0170000 76.4
2021-07-24 06:25:00 66.3 88.8 62.9 66.3 66.3 1.2 3.5 1.8 5.2 348.1 0.00 0.0230000 76.3
2021-07-24 06:30:00 66.6 88.3 63.1 66.6 66.6 1.9 3.0 1.9 333.4 351.3 0.00 0.0330000 76.3
2021-07-24 06:35:00 66.9 87.2 63.0 66.9 66.9 1.3 1.9 1.4 331.7 337.3 0.00 0.0420000 76.3
2021-07-24 06:40:00 67.2 86.2 62.9 67.2 67.2 2.1 2.4 0.7 336.9 346.0 0.00 0.0530000 76.3
2021-07-24 06:45:00 67.7 84.1 62.8 67.7 67.7 5.6 6.3 2.6 90.0 76.4 0.00 0.0650000 76.3
2021-07-24 06:50:00 66.8 86.8 62.7 66.8 66.8 1.9 5.5 3.3 76.6 87.5 0.00 0.0780000 76.2
2021-07-24 06:55:00 67.2 86.6 63.1 67.2 67.2 2.2 2.8 2.2 56.2 74.7 0.00 0.0910000 76.2
2021-07-24 07:00:00 68.3 84.9 63.6 68.3 68.3 0.0 2.4 1.5 82.7 52.4 0.00 0.1010000 76.2
2021-07-24 07:05:00 69.2 82.4 63.6 69.2 69.2 0.8 1.5 0.6 120.2 107.9 0.00 0.1120000 76.2
2021-07-24 07:10:00 69.7 81.4 63.8 69.7 69.7 0.0 1.0 0.1 288.3 124.2 0.00 0.1240000 76.1
2021-07-24 07:15:00 70.2 80.7 64.0 70.2 70.2 1.9 1.9 0.6 309.3 317.8 0.00 0.1380000 76.1
2021-07-24 07:20:00 70.4 82.1 64.7 70.4 70.4 1.9 2.6 2.2 308.1 306.1 0.00 0.1530000 76.1
2021-07-24 07:25:00 70.9 78.9 64.0 70.9 70.9 1.5 1.9 1.6 310.1 316.2 0.00 0.1670000 76.1
2021-07-24 07:30:00 71.3 77.3 63.8 71.3 71.3 1.5 2.4 1.8 306.3 289.9 0.00 0.1810000 76.1
2021-07-24 07:35:00 71.9 72.9 62.7 71.9 71.9 2.6 2.6 1.6 297.4 288.0 0.00 0.1970000 76.1
2021-07-24 07:40:00 72.5 71.2 62.7 72.5 72.5 1.9 2.4 1.8 295.7 268.6 0.00 0.2120000 76.1
2021-07-24 07:45:00 72.4 71.0 62.5 72.4 72.4 3.5 4.4 3.2 304.8 307.6 0.00 0.2270000 76.1
2021-07-24 07:50:00 73.1 66.9 61.4 73.1 73.1 0.0 3.0 1.2 269.6 276.5 0.00 0.2430000 76.1
2021-07-24 07:55:00 74.5 63.4 61.2 74.5 74.5 0.0 0.0 0.0 160.9 0.0 0.00 0.2580000 76.1
2021-07-24 08:00:00 75.7 61.3 61.4 75.7 75.7 2.6 2.6 0.8 188.9 139.8 0.00 0.2730000 76.1
2021-07-24 08:05:00 74.8 62.4 61.1 74.8 74.8 2.1 3.3 2.4 227.7 178.6 0.00 0.2870000 76.1
2021-07-24 08:10:00 75.2 65.8 63.0 75.2 75.2 2.8 2.8 1.9 261.2 244.2 0.00 0.3030000 76.1
2021-07-24 08:15:00 74.7 68.6 63.7 74.7 74.7 3.8 5.8 4.2 315.1 292.5 0.00 0.3190000 76.1
2021-07-24 08:20:00 74.7 70.2 64.4 74.7 74.7 3.3 5.3 3.6 292.3 293.1 0.00 0.3340000 76.1
2021-07-24 08:25:00 75.2 68.1 64.0 75.2 75.2 4.2 5.1 3.9 300.7 291.4 0.00 0.3500000 76.1
2021-07-24 08:30:00 75.7 67.7 64.3 75.7 75.7 4.2 4.9 3.2 285.6 285.8 0.00 0.3670000 76.1
2021-07-24 08:35:00 75.4 67.8 64.0 75.4 75.4 2.4 6.3 4.5 294.4 280.8 0.00 0.3810000 76.1
2021-07-24 08:40:00 75.8 64.9 63.2 75.8 75.8 5.6 8.0 5.5 296.0 292.3 0.00 0.3990000 76.1
2021-07-24 08:45:00 76.2 67.0 64.4 76.2 76.2 4.9 6.7 5.0 297.3 298.8 0.00 0.4140000 76.2
2021-07-24 08:50:00 76.0 65.4 63.5 76.0 76.0 6.9 9.0 6.9 302.2 296.6 0.00 0.4300000 76.2
2021-07-24 08:55:00 76.2 66.1 64.1 76.2 76.2 6.0 7.4 5.7 275.1 294.8 0.00 0.4460000 76.2
2021-07-24 09:00:00 76.7 61.7 62.5 76.7 76.7 4.7 7.1 5.1 265.6 283.7 0.00 0.4620000 76.2
2021-07-24 09:05:00 76.8 61.1 62.4 76.8 76.8 7.2 8.1 5.7 313.2 287.9 0.00 0.4760000 76.2
2021-07-24 09:10:00 77.4 63.0 63.8 77.4 77.4 7.4 7.4 5.2 301.0 285.1 0.00 0.4910000 76.2
2021-07-24 09:15:00 77.1 61.4 62.8 77.1 77.1 6.0 8.5 6.3 302.0 290.1 0.00 0.5050000 76.2
2021-07-24 09:20:00 77.2 61.9 63.1 77.2 77.2 8.5 9.4 7.7 298.8 288.0 0.00 0.5200000 76.2
2021-07-24 09:25:00 77.3 60.4 62.5 77.3 77.3 8.0 9.9 7.3 315.8 293.6 0.00 0.5360000 76.2
2021-07-24 09:30:00 77.7 61.6 63.4 77.7 77.7 4.9 7.6 6.2 264.9 283.8 0.00 0.5500000 76.3
2021-07-24 09:35:00 78.1 58.6 62.4 78.1 78.1 7.1 8.1 6.1 294.0 293.9 0.00 0.5630000 76.3
2021-07-24 09:40:00 78.5 59.2 63.1 78.5 78.5 9.0 9.2 6.2 305.3 297.1 0.00 0.5770000 76.3
2021-07-24 09:45:00 78.5 59.7 63.3 78.5 78.5 6.3 8.5 6.0 276.0 292.9 0.00 0.5910000 76.3
2021-07-24 09:50:00 78.9 61.0 64.3 78.9 78.9 6.0 7.4 5.9 315.0 312.3 0.00 0.6050000 76.3
2021-07-24 09:55:00 79.0 61.0 64.4 79.0 79.0 4.4 9.2 5.8 315.1 316.8 0.00 0.6170000 76.4
2021-07-24 10:00:00 79.3 59.5 63.9 79.3 79.3 6.5 7.8 5.6 312.8 311.4 0.00 0.6290000 76.4
2021-07-24 10:05:00 79.9 59.9 64.7 79.9 79.9 3.8 7.1 4.6 263.1 313.6 0.00 0.6420000 76.4
2021-07-24 10:10:00 79.9 59.3 64.5 79.9 79.9 6.5 8.1 5.1 261.8 299.8 0.00 0.6540000 76.4
2021-07-24 10:15:00 80.5 56.6 63.7 80.5 82.0 5.3 8.1 5.3 302.4 294.2 0.00 0.6660000 76.5
2021-07-24 10:20:00 80.5 55.9 63.3 80.5 82.0 4.2 8.5 5.0 0.4 327.6 0.00 0.6780000 76.5
2021-07-24 10:25:00 80.3 59.0 64.7 80.3 82.1 2.4 6.9 4.7 305.7 339.5 0.00 0.6900000 76.5
2021-07-24 10:30:00 81.0 57.5 64.6 81.0 82.7 6.3 7.6 5.3 305.7 315.6 0.00 0.6990000 76.5
2021-07-24 10:35:00 80.9 58.1 64.8 80.9 82.7 4.9 9.0 5.4 279.4 293.0 0.00 0.7100000 76.6
2021-07-24 10:40:00 81.0 56.8 64.3 81.0 82.6 5.8 8.3 5.1 293.2 303.7 0.00 0.7210000 76.6
2021-07-24 10:45:00 81.8 58.1 65.6 81.8 83.7 6.3 6.3 4.4 264.1 288.8 0.00 0.7310000 76.6
2021-07-24 10:50:00 82.0 57.0 65.3 82.0 83.9 7.2 7.4 4.4 305.0 304.9 0.00 0.7400000 76.7
2021-07-24 10:55:00 82.4 54.3 64.3 82.4 84.0 4.9 7.2 5.4 272.3 298.7 0.00 0.7500000 76.7
2021-07-24 11:00:00 82.3 54.6 64.4 82.3 83.9 3.8 8.8 4.8 313.2 311.5 0.00 0.7590000 76.8
2021-07-24 11:05:00 82.3 51.1 62.5 82.3 83.3 4.7 7.2 5.3 333.0 330.0 0.00 0.7680000 76.8
2021-07-24 11:10:00 82.8 54.3 64.7 82.8 84.5 5.3 9.6 6.2 288.6 307.3 0.00 0.7770000 76.9
2021-07-24 11:15:00 83.1 54.0 64.7 83.1 84.8 5.6 9.2 5.4 335.4 330.4 0.00 0.7850000 76.9
2021-07-24 11:20:00 83.4 50.7 63.2 83.4 84.5 6.3 7.2 4.5 283.5 300.4 0.00 0.7920000 77.0
2021-07-24 11:25:00 83.3 55.4 65.7 83.3 85.4 5.1 8.8 5.6 299.1 300.9 0.00 0.8000000 77.0
2021-07-24 11:30:00 83.9 53.0 65.0 83.9 85.7 6.9 9.2 5.3 293.0 308.5 0.00 0.8060000 77.1
2021-07-24 11:35:00 83.9 48.6 62.4 83.9 84.7 3.8 10.3 5.8 249.5 286.8 0.00 0.8130000 77.1
2021-07-24 11:40:00 86.0 51.7 66.2 86.0 88.4 6.0 6.0 4.2 304.6 321.7 0.00 0.8180000 77.1
2021-07-24 11:45:00 85.3 49.1 64.0 85.3 86.6 3.0 8.1 6.0 231.3 284.4 0.00 0.8240000 77.2
2021-07-24 11:50:00 85.4 50.0 64.7 85.4 87.0 6.0 6.0 3.3 289.7 269.0 0.00 0.8310000 77.3
2021-07-24 11:55:00 87.1 44.7 63.0 87.1 88.0 2.8 7.1 4.5 264.4 256.4 0.00 0.8350000 77.3
2021-07-24 12:00:00 87.2 48.9 65.6 87.2 89.3 2.6 5.8 3.0 348.3 323.5 0.00 0.8410000 77.4
2021-07-24 12:05:00 87.2 48.8 65.6 87.2 89.4 4.4 6.0 3.6 0.4 298.8 0.00 0.8460000 77.4
2021-07-24 12:10:00 85.3 44.9 61.5 85.3 85.7 4.6 8.7 6.7 240.5 275.8 0.00 0.8470000 77.5
2021-07-24 12:15:00 87.4 46.1 64.1 87.4 88.7 6.2 6.2 3.0 257.5 239.6 0.00 0.8530000 77.6
2021-07-24 12:20:00 87.3 46.0 64.0 87.3 88.6 1.9 6.5 2.9 228.3 271.4 0.00 0.8550000 77.6
2021-07-24 12:25:00 87.1 45.7 63.6 87.1 88.2 2.6 7.2 3.7 222.3 271.9 0.00 0.8580000 77.7
2021-07-24 12:30:00 87.8 42.0 61.9 87.8 88.2 1.7 7.2 4.3 251.3 208.4 0.00 0.8600000 77.7
2021-07-24 12:35:00 88.1 44.5 63.8 88.1 89.4 6.9 8.1 4.1 204.7 174.3 0.00 0.8620000 77.8
2021-07-24 12:40:00 88.3 42.9 62.9 88.3 89.2 3.7 8.3 5.0 158.8 157.6 0.00 0.8650000 77.9
2021-07-24 12:45:00 89.2 43.4 64.1 89.2 90.7 4.0 7.4 5.1 228.9 212.9 0.00 0.8670000 78.0
2021-07-24 12:50:00 89.8 41.9 63.6 89.8 91.0 5.8 7.1 4.7 245.7 239.3 0.00 0.8670000 78.0
2021-07-24 12:55:00 89.5 41.0 62.7 89.5 90.3 9.0 9.0 4.5 260.8 257.7 0.00 0.8670000 78.1
2021-07-24 13:00:00 89.1 40.5 62.0 89.1 89.5 2.8 8.3 5.1 175.0 215.4 0.00 0.8680000 78.2
2021-07-24 13:05:00 88.9 40.1 61.5 88.9 89.1 7.1 7.1 5.3 265.6 237.8 0.00 0.8690000 78.2
2021-07-24 13:10:00 89.7 39.8 62.1 89.7 89.7 2.4 8.5 4.9 4.0 263.3 0.00 0.8700000 78.3
2021-07-24 13:15:00 90.4 42.4 64.5 90.4 92.2 7.1 9.0 3.1 305.9 336.2 0.00 0.8670000 78.4
2021-07-24 13:20:00 89.2 44.2 64.5 89.2 90.9 3.8 9.9 4.0 338.3 297.7 0.00 0.8680000 78.4
2021-07-24 13:25:00 89.3 41.1 62.6 89.3 90.1 7.4 8.0 5.3 326.6 319.3 0.00 0.8650000 78.5
2021-07-24 13:30:00 89.5 39.2 61.4 89.5 89.5 3.1 8.1 5.1 261.0 318.3 0.00 0.8660000 78.6
2021-07-24 13:35:00 89.5 37.0 59.8 89.5 89.5 2.2 6.5 4.0 9.3 317.3 0.00 0.8650000 78.6
2021-07-24 13:40:00 90.6 37.5 61.2 90.6 90.6 1.2 3.3 1.9 107.1 106.1 0.00 0.8680000 78.7
2021-07-24 13:45:00 90.0 37.4 60.5 90.0 90.0 3.7 9.2 4.8 346.6 337.5 0.00 0.8660000 78.8
2021-07-24 13:50:00 90.9 40.9 63.9 90.9 92.3 2.2 4.4 3.2 320.4 46.7 0.00 0.8770000 78.8
2021-07-24 13:55:00 91.4 36.5 61.1 91.4 91.4 11.5 11.5 4.1 163.8 297.6 0.00 0.9040000 78.9
2021-07-24 14:00:00 90.9 34.1 58.7 90.9 90.9 5.6 9.7 5.9 107.3 154.7 0.00 0.9780000 78.9
2021-07-24 14:05:00 91.2 34.4 59.3 91.2 91.2 2.8 5.3 3.9 75.3 98.2 0.00 0.8500000 79.0
2021-07-24 14:10:00 91.7 35.2 60.3 91.7 91.7 1.5 10.8 4.6 230.5 260.8 0.00 0.9400000 79.0
2021-07-24 14:15:00 91.4 30.6 56.2 91.4 91.4 6.3 6.9 3.5 192.6 283.2 0.00 0.9090000 79.1
2021-07-24 14:20:00 93.6 30.4 57.9 93.6 93.6 8.7 10.6 6.0 218.9 196.2 0.00 0.8840000 79.1
2021-07-24 14:25:00 93.2 30.4 57.5 93.2 93.2 7.2 9.7 5.9 339.8 254.0 0.00 0.8690000 79.2
2021-07-24 14:30:00 93.0 31.3 58.2 93.0 93.0 7.8 14.9 7.1 262.6 262.8 0.00 0.8550000 79.3
2021-07-24 14:35:00 93.1 30.3 57.4 93.1 93.1 6.3 9.2 5.4 275.8 282.3 0.00 0.8360000 79.3
2021-07-24 14:40:00 92.0 29.5 55.7 92.0 92.0 9.2 12.4 7.4 278.5 267.9 0.00 0.8480000 79.3
2021-07-24 14:45:00 92.9 31.0 57.8 92.9 92.9 4.2 10.1 6.1 242.4 223.3 0.00 0.8800000 79.4
2021-07-24 14:50:00 93.7 30.0 57.6 93.7 93.7 4.2 7.6 5.2 249.2 272.8 0.00 0.8830000 79.4
2021-07-24 14:55:00 92.6 30.9 57.5 92.6 92.6 2.2 5.5 3.3 308.2 289.0 0.00 0.9140000 79.5
2021-07-24 15:00:00 94.3 29.8 57.9 94.3 94.3 7.8 14.0 7.1 249.9 248.7 0.00 0.9230000 79.5
2021-07-24 15:05:00 94.1 29.9 57.8 94.1 94.1 4.7 9.0 5.4 269.2 256.7 0.00 0.9480000 79.6
2021-07-24 15:10:00 92.6 30.1 56.8 92.6 92.6 9.0 12.1 7.4 243.6 241.3 0.00 0.3350000 79.6
2021-07-24 15:15:00 90.9 31.6 56.6 90.9 90.9 5.3 10.8 7.7 271.2 258.2 0.00 0.1760000 79.6
2021-07-24 15:20:00 90.3 28.7 53.5 90.3 90.3 2.2 6.5 3.6 199.7 247.6 0.00 0.1810000 79.7
2021-07-24 15:25:00 90.6 33.0 57.5 90.6 90.6 1.7 2.2 1.1 234.2 233.4 0.00 0.1720000 79.8
2021-07-24 15:30:00 90.3 34.6 58.6 90.3 90.3 6.3 7.8 4.5 235.0 235.0 0.00 0.3570000 79.8
2021-07-24 15:35:00 89.7 34.8 58.2 89.7 89.7 10.1 12.6 9.5 163.1 220.7 0.00 0.1700000 79.8
2021-07-24 15:40:00 84.8 43.3 60.0 84.8 84.7 6.9 23.5 11.1 178.7 173.3 0.00 0.2580000 79.8
2021-07-24 15:45:00 86.6 47.5 64.3 86.6 88.1 7.1 9.9 7.7 147.9 194.7 0.00 0.9070000 79.9
2021-07-24 15:50:00 90.8 37.1 61.0 90.8 90.8 8.3 10.8 8.2 146.5 144.4 0.00 0.9080000 79.9
2021-07-24 15:55:00 90.8 36.1 60.2 90.8 90.8 7.1 11.3 8.7 142.4 150.6 0.00 0.3040000 79.9
2021-07-24 16:00:00 91.3 34.2 59.1 91.3 91.3 5.6 10.5 6.3 139.1 128.7 0.00 0.7440000 79.9
2021-07-24 16:05:00 91.5 32.8 58.2 91.5 91.5 4.4 7.4 6.1 174.5 136.8 0.00 0.6990000 80.0
2021-07-24 16:10:00 92.4 33.3 59.4 92.4 92.4 2.8 6.3 3.5 102.7 152.8 0.00 0.6700000 80.0
2021-07-24 16:15:00 91.9 30.9 56.9 91.9 91.9 5.5 8.7 6.3 136.3 136.1 0.00 0.6460000 79.9
2021-07-24 16:20:00 91.9 32.5 58.3 91.9 91.9 7.4 8.5 5.5 109.4 103.8 0.00 0.6260000 80.0
2021-07-24 16:25:00 92.4 30.6 57.0 92.4 92.4 6.0 8.3 6.1 118.4 123.0 0.00 0.6120000 80.0
2021-07-24 16:30:00 91.7 31.9 57.5 91.7 91.7 4.7 8.3 5.6 178.2 156.3 0.00 0.6000000 80.0
2021-07-24 16:35:00 92.2 33.7 59.6 92.2 92.2 4.7 5.1 3.6 163.5 166.5 0.00 0.5930000 80.0
2021-07-24 16:40:00 92.5 30.0 56.6 92.5 92.5 5.3 6.9 4.6 134.0 168.1 0.00 0.5860000 80.0
2021-07-24 16:45:00 92.4 30.0 56.5 92.4 92.4 5.6 6.9 5.1 165.8 147.1 0.00 0.5740000 80.1
2021-07-24 16:50:00 93.0 29.3 56.4 93.0 93.0 2.8 5.5 3.6 164.0 188.2 0.00 0.5610000 80.1
2021-07-24 16:55:00 93.1 28.8 56.0 93.1 93.1 3.8 4.6 3.8 232.3 235.0 0.00 0.5460000 80.1
2021-07-24 17:00:00 92.8 29.0 55.8 92.8 92.8 4.4 5.6 4.0 151.0 162.8 0.00 0.5230000 80.2
2021-07-24 17:05:00 92.5 29.0 55.6 92.5 92.5 6.0 6.2 3.8 158.8 137.6 0.00 0.4990000 80.2
2021-07-24 17:10:00 92.8 30.6 57.3 92.8 92.8 2.8 5.8 2.7 184.0 138.3 0.00 0.4810000 80.2
2021-07-24 17:15:00 93.1 31.8 58.7 93.1 93.1 4.2 5.1 4.0 193.0 208.9 0.00 0.4620000 80.2
2021-07-24 17:20:00 92.7 28.1 54.9 92.7 92.7 2.8 5.3 3.7 213.0 236.8 0.00 0.4480000 80.2
2021-07-24 17:25:00 93.7 31.6 59.1 93.7 93.7 2.2 2.6 1.4 310.2 263.6 0.00 0.4390000 80.2
2021-07-24 17:30:00 93.3 28.4 55.7 93.3 93.3 3.0 5.6 3.5 222.4 255.8 0.00 0.3690000 80.2
2021-07-24 17:35:00 93.9 28.3 56.2 93.9 93.9 2.1 2.8 2.1 220.8 226.3 0.00 0.4260000 80.3
2021-07-24 17:40:00 93.8 28.6 56.4 93.8 93.8 1.5 2.2 1.7 348.0 329.9 0.00 0.4130000 80.3
2021-07-24 17:45:00 94.7 31.4 59.7 94.7 94.7 1.0 1.9 1.1 306.0 309.0 0.00 0.3990000 80.3
2021-07-24 17:50:00 94.1 29.7 57.7 94.1 94.1 6.0 6.2 2.7 117.9 120.2 0.00 0.3790000 80.3
2021-07-24 17:55:00 92.8 31.4 58.1 92.8 92.8 7.1 7.6 5.4 103.7 113.7 0.00 0.3600000 80.3
2021-07-24 18:00:00 92.6 29.1 55.8 92.6 92.6 4.2 7.1 5.0 104.6 101.5 0.00 0.3630000 80.4
2021-07-24 18:05:00 92.4 29.9 56.4 92.4 92.4 2.2 5.6 3.7 99.2 99.5 0.00 0.3780000 80.4
2021-07-24 18:10:00 92.8 30.4 57.1 92.8 92.8 4.7 5.6 3.1 111.3 104.4 0.00 0.3190000 80.4
2021-07-24 18:15:00 92.4 31.9 58.2 92.4 92.4 6.7 8.1 4.7 81.6 93.3 0.00 0.1720000 80.4
2021-07-24 18:20:00 92.2 30.0 56.3 92.2 92.2 6.3 7.6 5.2 131.5 99.4 0.00 0.1750000 80.4
2021-07-24 18:25:00 92.5 30.1 56.6 92.5 92.5 5.5 6.2 5.3 107.8 104.8 0.00 0.1660000 80.4
2021-07-24 18:30:00 91.9 29.8 55.9 91.9 91.9 0.8 5.8 3.1 84.3 83.2 0.00 0.1920000 80.5
2021-07-24 18:35:00 92.5 31.6 58.1 92.5 92.5 2.8 3.1 1.9 127.0 92.6 0.00 0.1750000 80.4
2021-07-24 18:40:00 92.5 29.6 56.2 92.5 92.5 4.0 5.3 4.1 115.8 119.9 0.00 0.3000000 80.5
2021-07-24 18:45:00 92.6 30.0 56.6 92.6 92.6 1.9 3.8 2.7 136.0 116.2 0.00 0.3000000 80.5
2021-07-24 18:50:00 91.8 30.1 56.1 91.8 91.8 4.7 6.0 3.4 168.3 173.0 0.00 0.2720000 80.5
2021-07-24 18:55:00 91.9 32.8 58.5 91.9 91.9 3.3 4.4 1.5 201.9 190.1 0.00 0.1370000 80.5
2021-07-24 19:00:00 90.9 32.6 57.5 90.9 90.9 1.5 3.3 2.3 176.4 183.2 0.00 0.1350000 80.5
2021-07-24 19:05:00 91.7 36.1 61.0 91.7 91.7 0.0 1.7 1.0 210.5 193.3 0.00 0.1020000 80.5
2021-07-24 19:10:00 91.2 39.8 63.4 91.2 91.2 1.2 1.7 1.1 192.7 212.5 0.00 0.1060000 80.5
2021-07-24 19:15:00 90.7 34.3 58.7 90.7 90.7 1.9 1.9 1.4 292.0 211.7 0.00 0.1140000 80.5
2021-07-24 19:20:00 91.1 32.7 57.8 91.1 91.1 2.6 3.1 0.9 138.4 135.5 0.00 0.0550000 80.6
2021-07-24 19:25:00 90.6 31.6 56.4 90.6 90.6 4.4 4.7 3.2 141.3 128.0 0.00 0.0530000 80.6
2021-07-24 19:30:00 90.6 31.1 55.9 90.6 90.6 0.0 3.8 1.1 117.4 157.1 0.00 0.0540000 80.6
2021-07-24 19:35:00 90.8 33.7 58.3 90.8 90.8 1.2 1.3 0.3 254.2 255.4 0.00 0.0410000 80.6
2021-07-24 19:40:00 89.2 34.0 57.2 89.2 89.2 1.7 2.2 0.5 173.1 189.3 0.00 0.0280000 80.6
2021-07-24 19:45:00 89.2 34.1 57.3 89.2 89.2 1.7 2.1 1.1 151.9 159.0 0.00 0.0160000 80.6
2021-07-24 19:50:00 89.1 37.7 60.0 89.1 89.1 1.7 2.4 2.0 163.5 155.8 0.00 0.0080000 80.6
2021-07-24 19:55:00 87.9 41.6 61.7 87.9 88.2 3.5 3.5 2.5 183.7 164.7 0.00 0.0040000 80.6
2021-07-24 20:00:00 85.4 42.0 59.7 85.4 85.1 8.3 11.5 6.7 225.1 216.4 0.00 0.0010000 80.5
2021-07-24 20:05:00 83.9 43.8 59.5 83.9 83.8 8.1 12.8 8.1 236.4 239.0 0.00 0.0010000 80.5
2021-07-24 20:10:00 82.9 46.0 60.0 82.9 83.1 9.9 11.9 8.7 241.0 254.7 0.00 0.0000000 80.6
2021-07-24 20:15:00 81.7 48.0 60.1 81.7 82.1 12.4 15.1 10.9 270.4 256.8 0.00 0.0000000 80.5
2021-07-24 20:20:00 80.6 50.9 60.8 80.6 81.5 7.6 11.9 8.6 244.4 256.7 0.00 0.0000000 80.5
2021-07-24 20:25:00 80.4 50.4 60.3 80.4 81.2 9.7 12.1 8.9 247.4 254.8 0.00 0.0000000 80.5
2021-07-24 20:30:00 80.3 50.6 60.3 80.3 81.1 8.3 9.9 7.9 280.1 261.1 0.00 0.0000000 80.5
2021-07-24 20:35:00 80.5 50.4 60.4 80.5 81.3 6.7 10.1 7.9 268.2 268.4 0.00 0.0000000 80.5
2021-07-24 20:40:00 80.7 49.1 59.9 80.7 81.4 7.4 9.2 7.5 265.0 270.4 0.00 0.0000000 80.4
2021-07-24 20:45:00 81.0 49.1 60.1 81.0 81.6 7.1 9.7 7.4 269.0 273.9 0.00 0.0000000 80.4
2021-07-24 20:50:00 80.9 49.5 60.2 80.9 81.5 10.8 13.3 8.4 246.1 272.9 0.00 0.0000000 80.4
2021-07-24 20:55:00 80.2 52.2 61.1 80.2 81.2 6.7 10.6 8.3 258.0 273.9 0.00 0.0000000 80.4
2021-07-24 21:00:00 79.4 53.3 60.9 79.4 79.4 8.1 9.2 6.9 282.8 277.8 0.00 0.0000000 80.3
2021-07-24 21:05:00 79.0 54.0 61.0 79.0 79.0 4.6 8.5 6.7 287.7 274.2 0.00 0.0000000 80.3
2021-07-24 21:10:00 78.4 55.5 61.1 78.4 78.4 5.1 6.9 5.5 265.9 280.6 0.00 0.0000000 80.3
2021-07-24 21:15:00 78.0 56.1 61.1 78.0 78.0 7.2 7.2 5.9 299.6 286.1 0.00 0.0000000 80.3
2021-07-24 21:20:00 78.1 56.4 61.3 78.1 78.1 5.6 8.5 6.2 286.9 291.0 0.00 0.0000000 80.3
2021-07-24 21:25:00 77.7 57.1 61.3 77.7 77.7 4.6 5.8 5.2 263.3 278.3 0.00 0.0000000 80.2
2021-07-24 21:30:00 77.3 57.9 61.3 77.3 77.3 5.6 6.3 4.9 272.2 270.2 0.00 0.0000000 80.2
2021-07-24 21:35:00 76.8 60.6 62.2 76.8 76.8 4.7 5.5 4.8 273.5 275.3 0.00 0.0000000 80.1
2021-07-24 21:40:00 76.0 62.3 62.1 76.0 76.0 4.7 5.5 4.7 283.2 281.0 0.00 0.0000000 80.1
2021-07-24 21:45:00 76.0 61.9 62.0 76.0 76.0 5.3 5.8 5.4 276.7 270.7 0.00 0.0000000 80.1
2021-07-24 21:50:00 75.7 64.0 62.7 75.7 75.7 4.7 5.5 5.0 280.6 275.3 0.00 0.0000000 80.0

Data is courtesy of the NM Climate Center. DO NOT USE IN LEGAL PROCEEDINGS.